sensor_id;sensor_type;location;lat;lon;timestamp;temperature;humidity
3312;DHT22;1668;49.648;8.570;2023-06-19T00:00:19;26.20;99.90
3312;DHT22;1668;49.648;8.570;2023-06-19T00:02:46;26.10;99.90
3312;DHT22;1668;49.648;8.570;2023-06-19T00:05:13;26.00;99.90
3312;DHT22;1668;49.648;8.570;2023-06-19T00:07:40;25.90;99.90
3312;DHT22;1668;49.648;8.570;2023-06-19T00:10:07;25.80;99.90
3312;DHT22;1668;49.648;8.570;2023-06-19T00:12:34;25.80;99.90
3312;DHT22;1668;49.648;8.570;2023-06-19T00:15:02;25.60;99.90
3312;DHT22;1668;49.648;8.570;2023-06-19T00:17:29;25.50;99.90
3312;DHT22;1668;49.648;8.570;2023-06-19T00:19:56;25.40;99.90
3312;DHT22;1668;49.648;8.570;2023-06-19T00:22:24;25.40;99.90
3312;DHT22;1668;49.648;8.570;2023-06-19T00:24:52;25.30;99.90
3312;DHT22;1668;49.648;8.570;2023-06-19T00:27:18;25.40;99.90
3312;DHT22;1668;49.648;8.570;2023-06-19T00:29:45;25.30;99.90
3312;DHT22;1668;49.648;8.570;2023-06-19T00:32:14;25.30;99.90
3312;DHT22;1668;49.648;8.570;2023-06-19T00:34:40;25.20;99.90
3312;DHT22;1668;49.648;8.570;2023-06-19T00:37:08;25.10;99.90
3312;DHT22;1668;49.648;8.570;2023-06-19T00:39:39;25.00;99.90
3312;DHT22;1668;49.648;8.570;2023-06-19T00:42:06;25.00;99.90
3312;DHT22;1668;49.648;8.570;2023-06-19T00:44:33;24.80;99.90
3312;DHT22;1668;49.648;8.570;2023-06-19T00:47:02;24.80;99.90
3312;DHT22;1668;49.648;8.570;2023-06-19T00:49:31;24.80;99.90
3312;DHT22;1668;49.648;8.570;2023-06-19T00:51:59;24.80;99.90
3312;DHT22;1668;49.648;8.570;2023-06-19T00:54:26;24.80;99.90
3312;DHT22;1668;49.648;8.570;2023-06-19T00:56:52;24.80;99.90
3312;DHT22;1668;49.648;8.570;2023-06-19T00:59:20;24.80;99.90
3312;DHT22;1668;49.648;8.570;2023-06-19T01:01:48;24.80;99.90
3312;DHT22;1668;49.648;8.570;2023-06-19T01:04:15;24.70;99.90
3312;DHT22;1668;49.648;8.570;2023-06-19T01:06:46;24.70;99.90
3312;DHT22;1668;49.648;8.570;2023-06-19T01:09:16;24.70;99.90
3312;DHT22;1668;49.648;8.570;2023-06-19T01:11:48;24.70;99.90
3312;DHT22;1668;49.648;8.570;2023-06-19T01:14:18;24.60;99.90
3312;DHT22;1668;49.648;8.570;2023-06-19T01:16:46;24.50;99.90
3312;DHT22;1668;49.648;8.570;2023-06-19T01:19:18;24.50;99.90
3312;DHT22;1668;49.648;8.570;2023-06-19T01:21:48;24.40;99.90
3312;DHT22;1668;49.648;8.570;2023-06-19T01:24:17;24.40;99.90
3312;DHT22;1668;49.648;8.570;2023-06-19T01:26:44;24.40;99.90
3312;DHT22;1668;49.648;8.570;2023-06-19T01:29:13;24.40;99.90
3312;DHT22;1668;49.648;8.570;2023-06-19T01:31:52;24.30;99.90
3312;DHT22;1668;49.648;8.570;2023-06-19T01:34:22;24.10;99.90
3312;DHT22;1668;49.648;8.570;2023-06-19T01:36:52;24.00;99.90
3312;DHT22;1668;49.648;8.570;2023-06-19T01:39:24;23.90;99.90
3312;DHT22;1668;49.648;8.570;2023-06-19T01:41:52;23.80;99.90
3312;DHT22;1668;49.648;8.570;2023-06-19T01:44:21;23.70;99.90
3312;DHT22;1668;49.648;8.570;2023-06-19T01:46:48;23.70;99.90
3312;DHT22;1668;49.648;8.570;2023-06-19T01:49:15;23.60;99.90
3312;DHT22;1668;49.648;8.570;2023-06-19T01:51:42;23.60;99.90
3312;DHT22;1668;49.648;8.570;2023-06-19T01:54:09;23.60;99.90
3312;DHT22;1668;49.648;8.570;2023-06-19T01:56:37;23.60;99.90
3312;DHT22;1668;49.648;8.570;2023-06-19T01:59:05;23.60;99.90
3312;DHT22;1668;49.648;8.570;2023-06-19T02:01:31;23.50;99.90
3312;DHT22;1668;49.648;8.570;2023-06-19T02:03:58;23.50;99.90
3312;DHT22;1668;49.648;8.570;2023-06-19T02:06:25;23.40;99.90
3312;DHT22;1668;49.648;8.570;2023-06-19T02:08:52;23.40;99.90
3312;DHT22;1668;49.648;8.570;2023-06-19T02:11:19;23.40;99.90
3312;DHT22;1668;49.648;8.570;2023-06-19T02:13:47;23.40;99.90
3312;DHT22;1668;49.648;8.570;2023-06-19T02:16:14;23.40;99.90
3312;DHT22;1668;49.648;8.570;2023-06-19T02:18:41;23.40;99.90
3312;DHT22;1668;49.648;8.570;2023-06-19T02:21:07;23.40;99.90
3312;DHT22;1668;49.648;8.570;2023-06-19T02:23:34;23.40;99.90
3312;DHT22;1668;49.648;8.570;2023-06-19T02:26:01;23.30;99.90
3312;DHT22;1668;49.648;8.570;2023-06-19T02:28:28;23.30;99.90
3312;DHT22;1668;49.648;8.570;2023-06-19T02:30:57;23.20;99.90
3312;DHT22;1668;49.648;8.570;2023-06-19T02:33:24;23.20;99.90
3312;DHT22;1668;49.648;8.570;2023-06-19T02:35:51;23.20;99.90
3312;DHT22;1668;49.648;8.570;2023-06-19T02:38:18;23.20;99.90
3312;DHT22;1668;49.648;8.570;2023-06-19T02:40:46;23.10;99.90
3312;DHT22;1668;49.648;8.570;2023-06-19T02:43:13;23.10;99.90
3312;DHT22;1668;49.648;8.570;2023-06-19T02:45:41;23.10;99.90
3312;DHT22;1668;49.648;8.570;2023-06-19T02:48:09;23.10;99.90
3312;DHT22;1668;49.648;8.570;2023-06-19T02:50:36;23.10;99.90
3312;DHT22;1668;49.648;8.570;2023-06-19T02:53:03;23.10;99.90
3312;DHT22;1668;49.648;8.570;2023-06-19T02:55:30;23.10;99.90
3312;DHT22;1668;49.648;8.570;2023-06-19T02:57:57;23.10;99.90
3312;DHT22;1668;49.648;8.570;2023-06-19T03:00:24;23.00;99.90
3312;DHT22;1668;49.648;8.570;2023-06-19T03:02:53;22.90;1.00
3312;DHT22;1668;49.648;8.570;2023-06-19T03:05:21;22.90;1.00
3312;DHT22;1668;49.648;8.570;2023-06-19T03:07:48;22.90;1.00
3312;DHT22;1668;49.648;8.570;2023-06-19T03:10:14;22.90;1.00
3312;DHT22;1668;49.648;8.570;2023-06-19T03:12:42;22.90;1.00
3312;DHT22;1668;49.648;8.570;2023-06-19T03:15:09;22.80;1.00
3312;DHT22;1668;49.648;8.570;2023-06-19T03:17:36;22.90;1.00
3312;DHT22;1668;49.648;8.570;2023-06-19T03:20:03;22.80;1.00
3312;DHT22;1668;49.648;8.570;2023-06-19T03:22:32;22.80;1.00
3312;DHT22;1668;49.648;8.570;2023-06-19T03:24:59;22.80;1.00
3312;DHT22;1668;49.648;8.570;2023-06-19T03:27:26;22.80;1.00
3312;DHT22;1668;49.648;8.570;2023-06-19T03:29:54;22.70;1.00
3312;DHT22;1668;49.648;8.570;2023-06-19T03:32:21;22.60;1.00
3312;DHT22;1668;49.648;8.570;2023-06-19T03:34:48;22.60;1.00
3312;DHT22;1668;49.648;8.570;2023-06-19T03:37:15;22.60;1.00
3312;DHT22;1668;49.648;8.570;2023-06-19T03:39:43;22.50;1.00
3312;DHT22;1668;49.648;8.570;2023-06-19T03:42:10;22.50;1.00
3312;DHT22;1668;49.648;8.570;2023-06-19T03:44:37;22.50;1.00
3312;DHT22;1668;49.648;8.570;2023-06-19T03:47:04;22.50;1.00
3312;DHT22;1668;49.648;8.570;2023-06-19T03:49:31;22.40;1.00
3312;DHT22;1668;49.648;8.570;2023-06-19T03:51:58;22.40;1.00
3312;DHT22;1668;49.648;8.570;2023-06-19T03:54:25;22.40;1.00
3312;DHT22;1668;49.648;8.570;2023-06-19T03:56:54;22.40;1.00
3312;DHT22;1668;49.648;8.570;2023-06-19T03:59:20;22.40;1.00
3312;DHT22;1668;49.648;8.570;2023-06-19T04:01:47;22.40;1.00
3312;DHT22;1668;49.648;8.570;2023-06-19T04:04:14;22.40;1.00
3312;DHT22;1668;49.648;8.570;2023-06-19T04:06:41;22.40;1.00
3312;DHT22;1668;49.648;8.570;2023-06-19T04:09:08;22.40;1.00
3312;DHT22;1668;49.648;8.570;2023-06-19T04:11:35;22.40;1.00
3312;DHT22;1668;49.648;8.570;2023-06-19T04:14:03;22.40;1.00
3312;DHT22;1668;49.648;8.570;2023-06-19T04:16:30;22.40;1.00
3312;DHT22;1668;49.648;8.570;2023-06-19T04:18:57;22.40;1.00
3312;DHT22;1668;49.648;8.570;2023-06-19T04:21:23;22.40;1.00
3312;DHT22;1668;49.648;8.570;2023-06-19T04:23:50;22.40;17.10
3312;DHT22;1668;49.648;8.570;2023-06-19T04:26:17;22.40;1.00
3312;DHT22;1668;49.648;8.570;2023-06-19T04:28:44;22.40;74.10
3312;DHT22;1668;49.648;8.570;2023-06-19T04:31:12;22.30;91.60
3312;DHT22;1668;49.648;8.570;2023-06-19T04:33:43;22.30;99.90
3312;DHT22;1668;49.648;8.570;2023-06-19T04:36:10;22.30;99.90
3312;DHT22;1668;49.648;8.570;2023-06-19T04:38:37;22.40;99.90
3312;DHT22;1668;49.648;8.570;2023-06-19T04:41:04;22.40;99.90
3312;DHT22;1668;49.648;8.570;2023-06-19T04:43:31;22.40;99.90
3312;DHT22;1668;49.648;8.570;2023-06-19T04:45:59;22.40;99.90
3312;DHT22;1668;49.648;8.570;2023-06-19T04:48:27;22.30;99.90
3312;DHT22;1668;49.648;8.570;2023-06-19T04:50:55;22.20;1.00
3312;DHT22;1668;49.648;8.570;2023-06-19T04:53:22;22.20;1.00
3312;DHT22;1668;49.648;8.570;2023-06-19T04:55:49;22.20;1.00
3312;DHT22;1668;49.648;8.570;2023-06-19T04:58:17;22.20;1.00
3312;DHT22;1668;49.648;8.570;2023-06-19T05:00:43;22.20;1.00
3312;DHT22;1668;49.648;8.570;2023-06-19T05:03:10;22.20;1.00
3312;DHT22;1668;49.648;8.570;2023-06-19T05:05:40;22.20;1.00
3312;DHT22;1668;49.648;8.570;2023-06-19T05:08:07;22.20;1.00
3312;DHT22;1668;49.648;8.570;2023-06-19T05:10:34;22.20;1.00
3312;DHT22;1668;49.648;8.570;2023-06-19T05:13:01;22.20;1.00
3312;DHT22;1668;49.648;8.570;2023-06-19T05:15:28;22.20;1.00
3312;DHT22;1668;49.648;8.570;2023-06-19T05:17:55;22.20;1.00
3312;DHT22;1668;49.648;8.570;2023-06-19T05:20:22;22.20;1.00
3312;DHT22;1668;49.648;8.570;2023-06-19T05:22:50;22.20;1.00
3312;DHT22;1668;49.648;8.570;2023-06-19T05:25:17;22.30;1.00
3312;DHT22;1668;49.648;8.570;2023-06-19T05:27:44;22.30;1.00
3312;DHT22;1668;49.648;8.570;2023-06-19T05:30:11;22.30;1.00
3312;DHT22;1668;49.648;8.570;2023-06-19T05:32:38;22.30;1.00
3312;DHT22;1668;49.648;8.570;2023-06-19T05:35:06;22.40;1.00
3312;DHT22;1668;49.648;8.570;2023-06-19T05:37:33;22.40;1.00
3312;DHT22;1668;49.648;8.570;2023-06-19T05:40:01;22.40;1.00
3312;DHT22;1668;49.648;8.570;2023-06-19T05:42:29;22.50;1.00
3312;DHT22;1668;49.648;8.570;2023-06-19T05:44:56;22.50;1.00
3312;DHT22;1668;49.648;8.570;2023-06-19T05:47:23;22.60;1.00
3312;DHT22;1668;49.648;8.570;2023-06-19T05:49:51;22.60;1.00
3312;DHT22;1668;49.648;8.570;2023-06-19T05:52:18;22.60;1.00
3312;DHT22;1668;49.648;8.570;2023-06-19T05:54:44;22.60;1.00
3312;DHT22;1668;49.648;8.570;2023-06-19T05:57:13;22.70;1.00
3312;DHT22;1668;49.648;8.570;2023-06-19T05:59:41;22.60;1.00
3312;DHT22;1668;49.648;8.570;2023-06-19T06:02:08;22.70;99.90
3312;DHT22;1668;49.648;8.570;2023-06-19T06:04:35;22.70;99.90
3312;DHT22;1668;49.648;8.570;2023-06-19T06:07:02;22.60;99.90
3312;DHT22;1668;49.648;8.570;2023-06-19T06:09:29;22.70;99.90
3312;DHT22;1668;49.648;8.570;2023-06-19T06:11:56;22.70;99.90
3312;DHT22;1668;49.648;8.570;2023-06-19T06:14:24;22.70;99.90
3312;DHT22;1668;49.648;8.570;2023-06-19T06:16:50;22.80;99.90
3312;DHT22;1668;49.648;8.570;2023-06-19T06:19:19;22.80;99.90
3312;DHT22;1668;49.648;8.570;2023-06-19T06:21:45;22.90;99.90
3312;DHT22;1668;49.648;8.570;2023-06-19T06:24:12;22.90;99.90
3312;DHT22;1668;49.648;8.570;2023-06-19T06:26:39;23.00;99.90
3312;DHT22;1668;49.648;8.570;2023-06-19T06:29:06;23.10;99.90
3312;DHT22;1668;49.648;8.570;2023-06-19T06:31:34;23.10;99.90
3312;DHT22;1668;49.648;8.570;2023-06-19T06:34:01;23.10;99.90
3312;DHT22;1668;49.648;8.570;2023-06-19T06:36:28;23.20;99.90
3312;DHT22;1668;49.648;8.570;2023-06-19T06:38:55;23.30;99.90
3312;DHT22;1668;49.648;8.570;2023-06-19T06:41:21;23.30;99.90
3312;DHT22;1668;49.648;8.570;2023-06-19T06:43:48;23.40;99.90
3312;DHT22;1668;49.648;8.570;2023-06-19T06:46:15;23.50;99.90
3312;DHT22;1668;49.648;8.570;2023-06-19T06:48:43;23.60;43.30
3312;DHT22;1668;49.648;8.570;2023-06-19T06:51:10;23.60;4.90
3312;DHT22;1668;49.648;8.570;2023-06-19T06:53:36;23.60;1.00
3312;DHT22;1668;49.648;8.570;2023-06-19T06:56:03;23.60;3.80
3312;DHT22;1668;49.648;8.570;2023-06-19T06:58:30;23.70;12.90
3312;DHT22;1668;49.648;8.570;2023-06-19T07:00:57;23.80;1.00
3312;DHT22;1668;49.648;8.570;2023-06-19T07:03:24;23.80;1.00
3312;DHT22;1668;49.648;8.570;2023-06-19T07:05:52;23.80;1.00
3312;DHT22;1668;49.648;8.570;2023-06-19T07:08:19;23.90;1.00
3312;DHT22;1668;49.648;8.570;2023-06-19T07:10:45;23.90;1.00
3312;DHT22;1668;49.648;8.570;2023-06-19T07:13:12;23.90;1.00
3312;DHT22;1668;49.648;8.570;2023-06-19T07:15:39;23.90;28.00
3312;DHT22;1668;49.648;8.570;2023-06-19T07:18:06;23.90;1.00
3312;DHT22;1668;49.648;8.570;2023-06-19T07:20:33;24.10;1.00
3312;DHT22;1668;49.648;8.570;2023-06-19T07:23:01;24.10;1.00
3312;DHT22;1668;49.648;8.570;2023-06-19T07:25:28;24.20;1.00
3312;DHT22;1668;49.648;8.570;2023-06-19T07:27:55;24.20;1.00
3312;DHT22;1668;49.648;8.570;2023-06-19T07:30:22;24.20;1.00
3312;DHT22;1668;49.648;8.570;2023-06-19T07:32:48;24.20;1.00
3312;DHT22;1668;49.648;8.570;2023-06-19T07:35:15;24.30;1.00
3312;DHT22;1668;49.648;8.570;2023-06-19T07:37:42;24.30;1.00
3312;DHT22;1668;49.648;8.570;2023-06-19T07:40:11;24.40;1.00
3312;DHT22;1668;49.648;8.570;2023-06-19T07:42:38;24.40;1.00
3312;DHT22;1668;49.648;8.570;2023-06-19T07:45:06;24.50;1.00
3312;DHT22;1668;49.648;8.570;2023-06-19T07:47:33;24.50;1.00
3312;DHT22;1668;49.648;8.570;2023-06-19T07:50:00;24.60;1.00
3312;DHT22;1668;49.648;8.570;2023-06-19T07:52:26;24.80;1.00
3312;DHT22;1668;49.648;8.570;2023-06-19T07:54:55;24.80;1.00
3312;DHT22;1668;49.648;8.570;2023-06-19T07:57:24;24.70;1.00
3312;DHT22;1668;49.648;8.570;2023-06-19T07:59:52;24.70;1.00
3312;DHT22;1668;49.648;8.570;2023-06-19T08:02:20;24.80;1.00
3312;DHT22;1668;49.648;8.570;2023-06-19T08:04:47;24.70;1.00
3312;DHT22;1668;49.648;8.570;2023-06-19T08:07:13;24.70;1.00
3312;DHT22;1668;49.648;8.570;2023-06-19T08:09:40;24.80;1.00
3312;DHT22;1668;49.648;8.570;2023-06-19T08:12:07;24.80;1.00
3312;DHT22;1668;49.648;8.570;2023-06-19T08:14:36;24.80;1.00
3312;DHT22;1668;49.648;8.570;2023-06-19T08:17:04;24.80;1.00
3312;DHT22;1668;49.648;8.570;2023-06-19T08:19:31;24.90;1.00
3312;DHT22;1668;49.648;8.570;2023-06-19T08:21:57;24.80;1.00
3312;DHT22;1668;49.648;8.570;2023-06-19T08:24:24;24.80;1.00
3312;DHT22;1668;49.648;8.570;2023-06-19T08:26:51;24.80;1.00
3312;DHT22;1668;49.648;8.570;2023-06-19T08:29:18;24.80;1.00
3312;DHT22;1668;49.648;8.570;2023-06-19T08:31:47;24.80;1.00
3312;DHT22;1668;49.648;8.570;2023-06-19T08:34:13;24.90;1.00
3312;DHT22;1668;49.648;8.570;2023-06-19T08:36:40;24.90;1.00
3312;DHT22;1668;49.648;8.570;2023-06-19T08:39:07;25.00;1.00
3312;DHT22;1668;49.648;8.570;2023-06-19T08:41:35;25.00;1.00
3312;DHT22;1668;49.648;8.570;2023-06-19T08:44:03;25.10;1.00
3312;DHT22;1668;49.648;8.570;2023-06-19T08:46:30;25.10;1.00
3312;DHT22;1668;49.648;8.570;2023-06-19T08:48:58;25.20;1.00
3312;DHT22;1668;49.648;8.570;2023-06-19T08:51:26;25.20;1.00
3312;DHT22;1668;49.648;8.570;2023-06-19T08:53:55;25.20;1.00
3312;DHT22;1668;49.648;8.570;2023-06-19T08:56:23;25.20;1.00
3312;DHT22;1668;49.648;8.570;2023-06-19T08:58:49;25.20;1.00
3312;DHT22;1668;49.648;8.570;2023-06-19T09:01:17;25.20;1.00
3312;DHT22;1668;49.648;8.570;2023-06-19T09:03:44;25.20;1.00
3312;DHT22;1668;49.648;8.570;2023-06-19T09:06:15;25.30;1.00
3312;DHT22;1668;49.648;8.570;2023-06-19T09:08:42;25.30;1.00
3312;DHT22;1668;49.648;8.570;2023-06-19T09:11:10;25.30;1.00
3312;DHT22;1668;49.648;8.570;2023-06-19T09:13:37;25.40;1.00
3312;DHT22;1668;49.648;8.570;2023-06-19T09:16:05;25.50;1.00
3312;DHT22;1668;49.648;8.570;2023-06-19T09:18:42;25.30;1.00
3312;DHT22;1668;49.648;8.570;2023-06-19T09:21:16;25.20;1.00
3312;DHT22;1668;49.648;8.570;2023-06-19T09:23:44;25.10;1.00
3312;DHT22;1668;49.648;8.570;2023-06-19T09:26:14;25.00;42.50
3312;DHT22;1668;49.648;8.570;2023-06-19T09:28:41;24.90;1.00
3312;DHT22;1668;49.648;8.570;2023-06-19T09:31:08;25.00;1.00
3312;DHT22;1668;49.648;8.570;2023-06-19T09:33:36;24.90;1.00
3312;DHT22;1668;49.648;8.570;2023-06-19T09:36:05;24.90;1.00
3312;DHT22;1668;49.648;8.570;2023-06-19T09:38:36;24.90;1.00
3312;DHT22;1668;49.648;8.570;2023-06-19T09:41:04;24.80;3.90
3312;DHT22;1668;49.648;8.570;2023-06-19T09:43:35;24.90;1.00
3312;DHT22;1668;49.648;8.570;2023-06-19T09:46:04;25.00;1.00
3312;DHT22;1668;49.648;8.570;2023-06-19T09:48:32;25.10;1.00
3312;DHT22;1668;49.648;8.570;2023-06-19T09:51:02;25.10;26.50
3312;DHT22;1668;49.648;8.570;2023-06-19T09:53:30;25.20;1.00
3312;DHT22;1668;49.648;8.570;2023-06-19T09:55:59;25.20;26.30
3312;DHT22;1668;49.648;8.570;2023-06-19T09:58:27;25.20;1.00
3312;DHT22;1668;49.648;8.570;2023-06-19T10:00:54;25.20;1.00
3312;DHT22;1668;49.648;8.570;2023-06-19T10:03:30;25.20;1.00
3312;DHT22;1668;49.648;8.570;2023-06-19T10:05:58;25.30;1.00
3312;DHT22;1668;49.648;8.570;2023-06-19T10:08:29;25.30;1.00
3312;DHT22;1668;49.648;8.570;2023-06-19T10:10:57;25.40;1.00
3312;DHT22;1668;49.648;8.570;2023-06-19T10:13:32;25.60;1.00
3312;DHT22;1668;49.648;8.570;2023-06-19T10:16:00;25.70;1.00
3312;DHT22;1668;49.648;8.570;2023-06-19T10:18:27;25.90;1.00
3312;DHT22;1668;49.648;8.570;2023-06-19T10:20:54;25.90;1.00
3312;DHT22;1668;49.648;8.570;2023-06-19T10:23:23;25.90;1.00
3312;DHT22;1668;49.648;8.570;2023-06-19T10:25:56;26.00;1.00
3312;DHT22;1668;49.648;8.570;2023-06-19T10:28:25;26.00;1.00
3312;DHT22;1668;49.648;8.570;2023-06-19T10:30:54;26.10;1.00
3312;DHT22;1668;49.648;8.570;2023-06-19T10:33:23;26.20;1.00
3312;DHT22;1668;49.648;8.570;2023-06-19T10:35:50;26.30;1.00
3312;DHT22;1668;49.648;8.570;2023-06-19T10:38:17;26.30;1.00
3312;DHT22;1668;49.648;8.570;2023-06-19T10:40:46;26.40;1.00
3312;DHT22;1668;49.648;8.570;2023-06-19T10:43:19;26.40;1.00
3312;DHT22;1668;49.648;8.570;2023-06-19T10:45:47;26.50;1.00
3312;DHT22;1668;49.648;8.570;2023-06-19T10:48:20;26.50;1.00
3312;DHT22;1668;49.648;8.570;2023-06-19T10:50:48;26.60;1.00
3312;DHT22;1668;49.648;8.570;2023-06-19T10:53:23;26.70;1.00
3312;DHT22;1668;49.648;8.570;2023-06-19T10:55:55;26.80;1.00
3312;DHT22;1668;49.648;8.570;2023-06-19T10:58:22;26.80;1.00
3312;DHT22;1668;49.648;8.570;2023-06-19T11:00:49;26.90;1.00
3312;DHT22;1668;49.648;8.570;2023-06-19T11:03:16;27.00;1.00
3312;DHT22;1668;49.648;8.570;2023-06-19T11:05:45;27.10;1.00
3312;DHT22;1668;49.648;8.570;2023-06-19T11:08:17;27.20;1.00
3312;DHT22;1668;49.648;8.570;2023-06-19T11:10:44;27.20;1.00
3312;DHT22;1668;49.648;8.570;2023-06-19T11:13:14;27.20;1.00
3312;DHT22;1668;49.648;8.570;2023-06-19T11:15:42;27.20;1.00
3312;DHT22;1668;49.648;8.570;2023-06-19T11:18:09;27.40;1.00
3312;DHT22;1668;49.648;8.570;2023-06-19T11:20:45;27.60;1.00
3312;DHT22;1668;49.648;8.570;2023-06-19T11:23:12;27.70;1.00
3312;DHT22;1668;49.648;8.570;2023-06-19T11:25:40;27.80;1.00
3312;DHT22;1668;49.648;8.570;2023-06-19T11:28:11;27.80;1.00
3312;DHT22;1668;49.648;8.570;2023-06-19T11:30:39;27.70;1.00
3312;DHT22;1668;49.648;8.570;2023-06-19T11:33:15;27.90;1.00
3312;DHT22;1668;49.648;8.570;2023-06-19T11:35:48;27.80;1.00
3312;DHT22;1668;49.648;8.570;2023-06-19T11:38:20;27.90;1.00
3312;DHT22;1668;49.648;8.570;2023-06-19T11:40:47;28.00;1.00
3312;DHT22;1668;49.648;8.570;2023-06-19T11:43:24;28.30;1.00
3312;DHT22;1668;49.648;8.570;2023-06-19T11:45:51;28.40;1.00
3312;DHT22;1668;49.648;8.570;2023-06-19T11:48:22;28.40;1.00
3312;DHT22;1668;49.648;8.570;2023-06-19T11:50:51;28.30;99.90
3312;DHT22;1668;49.648;8.570;2023-06-19T11:53:18;28.40;99.90
3312;DHT22;1668;49.648;8.570;2023-06-19T11:55:45;28.60;99.90
3312;DHT22;1668;49.648;8.570;2023-06-19T11:58:12;28.60;99.90
3312;DHT22;1668;49.648;8.570;2023-06-19T12:00:40;28.60;99.90
3312;DHT22;1668;49.648;8.570;2023-06-19T12:03:08;28.60;99.90
3312;DHT22;1668;49.648;8.570;2023-06-19T12:05:35;28.70;99.90
3312;DHT22;1668;49.648;8.570;2023-06-19T12:08:04;28.70;99.90
3312;DHT22;1668;49.648;8.570;2023-06-19T12:10:32;28.70;99.90
3312;DHT22;1668;49.648;8.570;2023-06-19T12:12:58;28.70;99.90
3312;DHT22;1668;49.648;8.570;2023-06-19T12:15:25;28.70;99.90
3312;DHT22;1668;49.648;8.570;2023-06-19T12:17:52;28.80;99.90
3312;DHT22;1668;49.648;8.570;2023-06-19T12:20:19;28.80;99.90
3312;DHT22;1668;49.648;8.570;2023-06-19T12:22:46;28.90;99.90
3312;DHT22;1668;49.648;8.570;2023-06-19T12:25:14;29.10;99.90
3312;DHT22;1668;49.648;8.570;2023-06-19T12:27:41;29.10;99.90
3312;DHT22;1668;49.648;8.570;2023-06-19T12:30:09;29.00;99.90
3312;DHT22;1668;49.648;8.570;2023-06-19T12:32:36;29.00;99.90
3312;DHT22;1668;49.648;8.570;2023-06-19T12:35:03;28.80;99.90
3312;DHT22;1668;49.648;8.570;2023-06-19T12:37:30;28.80;99.90
3312;DHT22;1668;49.648;8.570;2023-06-19T12:39:57;28.90;99.90
3312;DHT22;1668;49.648;8.570;2023-06-19T12:42:25;28.90;99.90
3312;DHT22;1668;49.648;8.570;2023-06-19T12:44:52;29.00;99.90
3312;DHT22;1668;49.648;8.570;2023-06-19T12:47:19;29.10;99.90
3312;DHT22;1668;49.648;8.570;2023-06-19T12:49:46;29.10;99.90
3312;DHT22;1668;49.648;8.570;2023-06-19T12:52:13;29.30;99.90
3312;DHT22;1668;49.648;8.570;2023-06-19T12:54:39;29.40;99.90
3312;DHT22;1668;49.648;8.570;2023-06-19T12:57:07;29.50;99.90
3312;DHT22;1668;49.648;8.570;2023-06-19T12:59:35;29.50;99.90
3312;DHT22;1668;49.648;8.570;2023-06-19T13:02:03;29.40;99.90
3312;DHT22;1668;49.648;8.570;2023-06-19T13:04:30;29.50;99.90
3312;DHT22;1668;49.648;8.570;2023-06-19T13:06:56;29.50;99.90
3312;DHT22;1668;49.648;8.570;2023-06-19T13:09:23;29.50;99.90
3312;DHT22;1668;49.648;8.570;2023-06-19T13:11:50;29.60;99.90
3312;DHT22;1668;49.648;8.570;2023-06-19T13:14:17;29.70;99.90
3312;DHT22;1668;49.648;8.570;2023-06-19T13:16:45;29.80;99.90
3312;DHT22;1668;49.648;8.570;2023-06-19T13:19:12;29.70;99.90
3312;DHT22;1668;49.648;8.570;2023-06-19T13:21:41;29.70;99.90
3312;DHT22;1668;49.648;8.570;2023-06-19T13:24:08;29.70;99.90
3312;DHT22;1668;49.648;8.570;2023-06-19T13:26:34;29.60;99.90
3312;DHT22;1668;49.648;8.570;2023-06-19T13:29:01;29.60;99.90
3312;DHT22;1668;49.648;8.570;2023-06-19T13:31:28;29.40;99.90
3312;DHT22;1668;49.648;8.570;2023-06-19T13:33:56;29.40;99.90
3312;DHT22;1668;49.648;8.570;2023-06-19T13:36:24;29.30;99.90
3312;DHT22;1668;49.648;8.570;2023-06-19T13:38:52;29.40;99.90
3312;DHT22;1668;49.648;8.570;2023-06-19T13:41:19;29.70;99.90
3312;DHT22;1668;49.648;8.570;2023-06-19T13:43:49;30.00;99.90
3312;DHT22;1668;49.648;8.570;2023-06-19T13:46:16;29.90;99.90
3312;DHT22;1668;49.648;8.570;2023-06-19T13:48:42;29.90;99.90
3312;DHT22;1668;49.648;8.570;2023-06-19T13:51:11;30.20;99.90
3312;DHT22;1668;49.648;8.570;2023-06-19T13:53:37;30.20;99.90
3312;DHT22;1668;49.648;8.570;2023-06-19T13:56:04;30.30;99.90
3312;DHT22;1668;49.648;8.570;2023-06-19T13:58:31;30.50;99.90
3312;DHT22;1668;49.648;8.570;2023-06-19T14:00:58;30.50;99.90
3312;DHT22;1668;49.648;8.570;2023-06-19T14:03:25;30.30;99.90
3312;DHT22;1668;49.648;8.570;2023-06-19T14:05:51;30.20;99.90
3312;DHT22;1668;49.648;8.570;2023-06-19T14:08:19;30.10;99.90
3312;DHT22;1668;49.648;8.570;2023-06-19T14:10:46;30.10;99.90
3312;DHT22;1668;49.648;8.570;2023-06-19T14:13:13;30.00;99.90
3312;DHT22;1668;49.648;8.570;2023-06-19T14:15:40;30.00;99.90
3312;DHT22;1668;49.648;8.570;2023-06-19T14:18:07;30.10;99.90
3312;DHT22;1668;49.648;8.570;2023-06-19T14:20:34;30.10;99.90
3312;DHT22;1668;49.648;8.570;2023-06-19T14:23:00;30.10;99.90
3312;DHT22;1668;49.648;8.570;2023-06-19T14:25:29;30.20;99.90
3312;DHT22;1668;49.648;8.570;2023-06-19T14:27:55;30.20;99.90
3312;DHT22;1668;49.648;8.570;2023-06-19T14:30:22;30.20;99.90
3312;DHT22;1668;49.648;8.570;2023-06-19T14:32:49;30.20;99.90
3312;DHT22;1668;49.648;8.570;2023-06-19T14:35:16;30.50;99.90
3312;DHT22;1668;49.648;8.570;2023-06-19T14:37:43;30.60;99.90
3312;DHT22;1668;49.648;8.570;2023-06-19T14:40:10;30.70;99.90
3312;DHT22;1668;49.648;8.570;2023-06-19T14:42:39;30.90;99.90
3312;DHT22;1668;49.648;8.570;2023-06-19T14:45:06;31.00;99.90
3312;DHT22;1668;49.648;8.570;2023-06-19T14:47:33;30.80;99.90
3312;DHT22;1668;49.648;8.570;2023-06-19T14:50:00;30.70;99.90
3312;DHT22;1668;49.648;8.570;2023-06-19T14:52:27;31.10;99.90
3312;DHT22;1668;49.648;8.570;2023-06-19T14:54:55;31.50;99.90
3312;DHT22;1668;49.648;8.570;2023-06-19T14:57:24;31.80;99.90
3312;DHT22;1668;49.648;8.570;2023-06-19T14:59:52;32.10;99.90
3312;DHT22;1668;49.648;8.570;2023-06-19T15:02:19;32.20;99.90
3312;DHT22;1668;49.648;8.570;2023-06-19T15:04:46;32.30;99.90
3312;DHT22;1668;49.648;8.570;2023-06-19T15:07:13;32.10;99.90
3312;DHT22;1668;49.648;8.570;2023-06-19T15:09:40;31.90;99.90
3312;DHT22;1668;49.648;8.570;2023-06-19T15:12:07;31.80;99.90
3312;DHT22;1668;49.648;8.570;2023-06-19T15:14:34;31.50;99.90
3312;DHT22;1668;49.648;8.570;2023-06-19T15:17:05;31.30;99.90
3312;DHT22;1668;49.648;8.570;2023-06-19T15:19:32;31.20;99.90
3312;DHT22;1668;49.648;8.570;2023-06-19T15:21:59;31.10;99.90
3312;DHT22;1668;49.648;8.570;2023-06-19T15:24:26;31.10;99.90
3312;DHT22;1668;49.648;8.570;2023-06-19T15:26:53;31.10;99.90
3312;DHT22;1668;49.648;8.570;2023-06-19T15:29:35;31.00;99.90
3312;DHT22;1668;49.648;8.570;2023-06-19T15:32:10;30.90;99.90
3312;DHT22;1668;49.648;8.570;2023-06-19T15:34:37;31.00;99.90
3312;DHT22;1668;49.648;8.570;2023-06-19T15:37:06;31.00;99.90
3312;DHT22;1668;49.648;8.570;2023-06-19T15:39:33;30.90;99.90
3312;DHT22;1668;49.648;8.570;2023-06-19T15:42:00;30.90;99.90
3312;DHT22;1668;49.648;8.570;2023-06-19T15:44:27;31.00;99.90
3312;DHT22;1668;49.648;8.570;2023-06-19T15:46:53;31.10;99.90
3312;DHT22;1668;49.648;8.570;2023-06-19T15:49:22;31.10;99.90
3312;DHT22;1668;49.648;8.570;2023-06-19T15:51:48;31.50;99.90
3312;DHT22;1668;49.648;8.570;2023-06-19T15:54:15;31.80;99.90
3312;DHT22;1668;49.648;8.570;2023-06-19T15:56:42;31.70;99.90
3312;DHT22;1668;49.648;8.570;2023-06-19T15:59:10;31.80;99.90
3312;DHT22;1668;49.648;8.570;2023-06-19T16:01:37;31.70;99.90
3312;DHT22;1668;49.648;8.570;2023-06-19T16:04:04;31.60;99.90
3312;DHT22;1668;49.648;8.570;2023-06-19T16:06:32;31.50;99.90
3312;DHT22;1668;49.648;8.570;2023-06-19T16:08:59;31.40;99.90
3312;DHT22;1668;49.648;8.570;2023-06-19T16:11:26;31.30;99.90